Time;durP1;ratioP1;P1;durP2;ratioP2;P2;SDS_P1;SDS_P2;PMS_P1;PMS_P2;Temp;Humidity;BMP_temperature;BMP_pressure;BME280_temperature;BME280_humidity;BME280_pressure;Samples;Min_cycle;Max_cycle;Signal;HPM_P1;HPM_P2
2023/04/17 00:01:02;;;;;;;34.78;20.17;;;;;;;7.85;100.00;102681.50;6129321;23;20042;-79
2023/04/17 00:03:30;;;;;;;34.63;19.70;;;;;;;7.86;100.00;102683.00;6130174;23;20021;-79
2023/04/17 00:05:57;;;;;;;30.33;18.92;;;;;;;7.85;100.00;102681.50;6129475;23;20401;-79
2023/04/17 00:08:23;;;;;;;31.05;18.80;;;;;;;7.82;100.00;102685.66;6129738;23;20018;-79
2023/04/17 00:10:51;;;;;;;37.88;19.92;;;;;;;7.81;100.00;102680.72;6129963;23;20018;-79
2023/04/17 00:13:32;;;;;;;43.80;20.63;;;;;;;7.81;100.00;102680.72;6130174;23;20026;-79
2023/04/17 00:15:59;;;;;;;34.20;19.23;;;;;;;7.81;100.00;102680.72;6129874;23;20015;-79
2023/04/17 00:18:26;;;;;;;34.88;19.48;;;;;;;7.81;100.00;102676.19;6104271;23;20022;-79
2023/04/17 00:20:53;;;;;;;40.17;19.17;;;;;;;7.80;100.00;102679.19;6129600;23;20448;-79
2023/04/17 00:23:19;;;;;;;33.75;19.15;;;;;;;7.82;100.00;102687.53;6129207;23;20019;-79
2023/04/17 00:25:46;;;;;;;31.05;18.75;;;;;;;7.83;100.00;102681.09;6129742;23;20014;-79
2023/04/17 00:28:12;;;;;;;36.72;18.77;;;;;;;7.81;100.00;102681.47;6129576;23;20444;-79
2023/04/17 00:30:39;;;;;;;31.33;19.00;;;;;;;7.80;100.00;102684.50;6129566;23;20101;-79
2023/04/17 00:33:06;;;;;;;34.03;18.83;;;;;;;7.80;100.00;102687.16;6129751;23;20102;-79
2023/04/17 00:35:32;;;;;;;33.28;18.15;;;;;;;7.75;100.00;102684.84;6129981;23;20163;-79
2023/04/17 00:37:59;;;;;;;32.45;17.95;;;;;;;7.77;100.00;102687.91;6129076;23;20030;-80
2023/04/17 00:40:25;;;;;;;29.55;17.58;;;;;;;7.76;100.00;102684.47;6103949;23;20019;-79
2023/04/17 00:42:55;;;;;;;28.83;17.52;;;;;;;7.76;100.00;102683.72;6129616;23;20074;-79
2023/04/17 00:45:21;;;;;;;27.98;16.83;;;;;;;7.74;100.00;102683.34;6129885;23;20021;-79
2023/04/17 00:47:49;;;;;;;30.15;16.98;;;;;;;7.73;100.00;102684.47;6129648;23;20025;-79
2023/04/17 00:50:16;;;;;;;29.10;16.63;;;;;;;7.73;100.00;102679.91;6129834;23;20066;-79
2023/04/17 00:52:43;;;;;;;22.08;15.45;;;;;;;7.73;100.00;102682.56;6129087;23;20456;-79
2023/04/17 00:55:11;;;;;;;23.23;15.38;;;;;;;7.70;100.00;102678.00;6103270;23;20023;-79
2023/04/17 00:57:39;;;;;;;23.00;14.70;;;;;;;7.68;100.00;102673.09;6102761;23;20034;-79
2023/04/17 01:00:08;;;;;;;23.17;15.38;;;;;;;7.69;100.00;102676.50;6103370;23;20022;-79
2023/04/17 01:02:35;;;;;;;23.48;15.10;;;;;;;7.68;100.00;102678.38;6103094;23;20022;-79
2023/04/17 01:05:02;;;;;;;22.30;14.68;;;;;;;7.67;100.00;102674.22;6129580;23;20019;-79
2023/04/17 01:07:29;;;;;;;23.77;14.88;;;;;;;7.64;100.00;102682.91;6103212;23;20059;-79
2023/04/17 01:09:56;;;;;;;21.17;14.68;;;;;;;7.64;100.00;102682.91;6102993;23;20065;-79
2023/04/17 01:12:23;;;;;;;23.73;14.20;;;;;;;7.60;100.00;102679.47;6103363;23;20026;-79
2023/04/17 01:14:52;;;;;;;21.40;14.27;;;;;;;7.58;100.00;102683.66;6079028;23;20066;-79
2023/04/17 01:17:20;;;;;;;22.25;13.20;;;;;;;7.55;100.00;102685.16;6079106;23;20535;-79
2023/04/17 01:19:48;;;;;;;18.77;13.38;;;;;;;7.55;100.00;102684.41;6103028;23;20025;-79
2023/04/17 01:22:15;;;;;;;21.15;13.45;;;;;;;7.51;100.00;102692.31;6102588;23;20018;-79
2023/04/17 01:24:43;;;;;;;20.73;13.25;;;;;;;7.51;100.00;102696.88;6103098;23;20018;-80
2023/04/17 01:27:12;;;;;;;19.88;13.18;;;;;;;7.52;100.00;102691.19;6103050;23;20029;-79
2023/04/17 01:29:42;;;;;;;19.55;13.23;;;;;;;7.53;100.00;102686.66;6103423;23;20449;-79
2023/04/17 01:32:09;;;;;;;18.00;13.70;;;;;;;7.51;100.00;102687.03;6079242;23;20033;-79
2023/04/17 01:34:36;;;;;;;20.58;13.40;;;;;;;7.52;100.00;102685.91;6103332;23;20018;-78
2023/04/17 01:37:03;;;;;;;19.00;12.60;;;;;;;7.49;100.00;102689.28;6103029;23;20019;-79
2023/04/17 01:39:30;;;;;;;18.73;12.68;;;;;;;7.47;100.00;102694.19;6104119;23;20022;-79
2023/04/17 01:41:56;;;;;;;19.65;12.68;;;;;;;7.46;100.00;102695.31;6102650;23;20017;-79
2023/04/17 01:44:23;;;;;;;16.75;12.52;;;;;;;7.45;100.00;102695.69;6079494;23;20022;-79
2023/04/17 01:46:50;;;;;;;19.02;12.52;;;;;;;7.45;100.00;102699.09;6103107;23;20026;-79
2023/04/17 01:49:16;;;;;;;16.60;11.98;;;;;;;7.45;100.00;102701.00;6103418;23;20015;-79
2023/04/17 01:51:43;;;;;;;17.50;12.18;;;;;;;7.42;100.00;102697.19;6102275;23;20098;-79
2023/04/17 01:54:09;;;;;;;18.80;12.43;;;;;;;7.41;100.00;102700.97;6129286;23;20349;-79
2023/04/17 01:56:36;;;;;;;20.10;12.93;;;;;;;7.41;100.00;102700.22;6102893;23;20023;-79
2023/04/17 01:59:03;;;;;;;20.00;12.40;;;;;;;7.39;100.00;102697.16;6102705;23;20031;-79
2023/04/17 02:01:30;;;;;;;17.52;11.23;;;;;;;7.39;100.00;102703.22;6103151;23;20520;-79
2023/04/17 02:03:56;;;;;;;18.23;11.63;;;;;;;7.38;99.82;102698.28;6128026;23;20024;-79
2023/04/17 02:06:26;;;;;;;17.30;11.98;;;;;;;7.39;100.00;102702.47;6103177;23;20451;-79
2023/04/17 02:08:52;;;;;;;21.85;12.68;;;;;;;7.38;100.00;102701.72;6102875;23;20022;-79
2023/04/17 02:11:19;;;;;;;15.82;12.57;;;;;;;7.38;100.00;102701.72;6103207;23;20046;-79
2023/04/17 02:13:49;;;;;;;20.30;13.63;;;;;;;7.34;100.00;102699.03;6129100;23;20512;-79
2023/04/17 02:16:16;;;;;;;19.42;12.88;;;;;;;7.34;100.00;102698.28;6102861;23;20031;-79
2023/04/17 02:18:42;;;;;;;16.85;12.45;;;;;;;7.33;100.00;102702.06;6101949;23;20419;-79
2023/04/17 02:21:09;;;;;;;23.80;13.13;;;;;;;7.33;100.00;102696.75;6102680;23;20025;-79
2023/04/17 02:23:35;;;;;;;16.50;11.90;;;;;;;7.32;100.00;102703.19;6078770;23;20027;-79
2023/04/17 02:26:02;;;;;;;19.38;12.40;;;;;;;7.32;100.00;102698.63;6130171;23;20029;-79
2023/04/17 02:28:29;;;;;;;16.67;12.25;;;;;;;7.32;100.00;102703.19;6104310;23;20082;-79
2023/04/17 02:31:00;;;;;;;19.75;12.48;;;;;;;7.32;100.00;102697.88;6104198;23;20074;-79
2023/04/17 02:33:28;;;;;;;21.92;12.60;;;;;;;7.34;100.00;102695.63;6103806;23;20431;-79
2023/04/17 02:35:55;;;;;;;21.10;13.43;;;;;;;7.33;100.00;102689.56;6130111;23;20022;-80
2023/04/17 02:38:31;;;;;;;19.65;13.38;;;;;;;7.36;100.00;102693.38;6104323;23;20484;-78
2023/04/17 02:40:58;;;;;;;21.15;12.63;;;;;;;7.35;100.00;102697.16;6129765;23;20021;-79
2023/04/17 02:43:27;;;;;;;21.38;12.80;;;;;;;7.36;100.00;102693.38;6103965;23;20018;-79
2023/04/17 02:45:54;;;;;;;21.92;14.35;;;;;;;7.36;100.00;102698.66;6079800;23;20456;-79
2023/04/17 02:48:21;;;;;;;19.45;13.30;;;;;;;7.33;100.00;102694.09;6103388;23;20046;-79
2023/04/17 02:50:47;;;;;;;21.60;13.88;;;;;;;7.33;100.00;102694.09;6103896;23;20069;-79
2023/04/17 02:53:17;;;;;;;20.88;13.68;;;;;;;7.31;100.00;102696.34;6103798;23;20019;-79
2023/04/17 02:55:43;;;;;;;19.65;13.43;;;;;;;7.31;100.00;102699.78;6079913;23;20022;-79
2023/04/17 02:58:12;;;;;;;22.10;14.73;;;;;;;7.32;100.00;102692.59;6079462;23;20079;-79
2023/04/17 03:00:39;;;;;;;21.48;14.48;;;;;;;7.32;100.00;102698.63;6103809;23;20074;-77
2023/04/17 03:03:08;;;;;;;20.92;14.48;;;;;;;7.33;100.00;102694.09;6103084;23;20022;-77
2023/04/17 03:05:35;;;;;;;19.42;13.63;;;;;;;7.31;100.00;102696.34;6129868;23;20019;-77
2023/04/17 03:08:02;;;;;;;22.65;14.80;;;;;;;7.30;100.00;102700.91;6103840;23;20022;-77
2023/04/17 03:10:33;;;;;;;23.63;15.48;;;;;;;7.29;100.00;102695.97;6080857;23;20046;-77
2023/04/17 03:13:02;;;;;;;22.20;14.85;;;;;;;7.29;100.00;102698.63;6103684;23;20495;-77
2023/04/17 03:15:31;;;;;;;22.30;15.10;;;;;;;7.29;100.00;102699.38;6080327;23;20421;-77
2023/04/17 03:17:57;;;;;;;23.02;15.00;;;;;;;7.28;100.00;102703.16;6103176;23;20106;-76
2023/04/17 03:20:24;;;;;;;22.50;15.52;;;;;;;7.26;100.00;102699.34;6130228;23;20444;-79
2023/04/17 03:22:51;;;;;;;24.27;16.13;;;;;;;7.25;100.00;102701.25;6129934;23;20018;-79
2023/04/17 03:25:17;;;;;;;24.35;15.38;;;;;;;7.27;100.00;102695.56;6103660;23;20023;-78
2023/04/17 03:27:51;;;;;;;22.75;14.80;;;;;;;7.26;100.00;102694.81;6130353;23;20093;-79
2023/04/17 03:30:20;;;;;;;23.88;15.68;;;;;;;7.24;100.00;102697.06;6130020;23;20018;-79
2023/04/17 03:32:49;;;;;;;25.13;14.93;;;;;;;7.22;100.00;102694.03;6103097;23;20011;-77
2023/04/17 03:35:15;;;;;;;24.08;15.27;;;;;;;7.21;100.00;102691.75;6079756;23;20436;-80
2023/04/17 03:37:42;;;;;;;22.63;15.30;;;;;;;7.21;100.00;102695.16;6103548;23;20019;-79
2023/04/17 03:40:10;;;;;;;22.38;14.55;;;;;;;7.23;100.00;102700.09;6103539;23;20074;-81
2023/04/17 03:42:36;;;;;;;28.58;14.65;;;;;;;7.23;100.00;102700.09;6103593;23;20097;-79
2023/04/17 03:45:03;;;;;;;28.15;15.10;;;;;;;7.23;100.00;102706.13;6103708;23;20061;-79
2023/04/17 03:47:32;;;;;;;21.38;14.73;;;;;;;7.22;100.00;102701.22;6103396;23;20025;-79
2023/04/17 03:49:59;;;;;;;22.48;14.60;;;;;;;7.21;100.00;102705.00;6103604;23;20027;-77
2023/04/17 03:52:31;;;;;;;29.00;15.27;;;;;;;7.21;100.00;102707.63;6103654;23;20050;-77
2023/04/17 03:54:58;;;;;;;26.23;16.13;;;;;;;7.19;100.00;102704.63;6129382;23;20018;-77
2023/04/17 03:57:25;;;;;;;23.83;15.60;;;;;;;7.16;100.00;102698.16;6103494;23;20026;-79
2023/04/17 03:59:52;;;;;;;22.52;14.77;;;;;;;7.15;100.00;102709.13;6078768;23;20022;-77
2023/04/17 04:02:19;;;;;;;26.38;16.02;;;;;;;7.16;100.00;102705.34;6103405;23;20106;-79
2023/04/17 04:04:49;;;;;;;25.85;15.65;;;;;;;7.15;100.00;102701.94;6103338;23;20449;-77
2023/04/17 04:07:16;;;;;;;24.90;16.38;;;;;;;7.16;100.00;102700.06;6079441;23;20022;-79
2023/04/17 04:09:43;;;;;;;23.95;15.90;;;;;;;7.17;100.00;102702.34;6103631;23;20450;-79
2023/04/17 04:12:10;;;;;;;26.00;16.25;;;;;;;7.18;100.00;102708.41;6103383;23;20021;-79
2023/04/17 04:14:39;;;;;;;24.65;15.95;;;;;;;7.17;100.00;102709.53;6129070;23;20019;-79
2023/04/17 04:17:08;;;;;;;27.50;16.17;;;;;;;7.16;100.00;102705.34;6103432;23;20050;-79
2023/04/17 04:19:35;;;;;;;23.60;16.15;;;;;;;7.16;100.00;102710.66;6129581;23;20464;-78
2023/04/17 04:22:03;;;;;;;25.42;16.30;;;;;;;7.15;100.00;102714.44;6103615;23;20460;-79
2023/04/17 04:24:39;;;;;;;23.80;16.00;;;;;;;7.15;100.00;102709.13;6081493;23;20019;-78
2023/04/17 04:27:06;;;;;;;25.48;15.60;;;;;;;7.14;100.00;102708.38;6103298;23;20025;-79
2023/04/17 04:29:36;;;;;;;24.30;15.80;;;;;;;7.11;100.00;102709.09;6102958;23;20089;-78
2023/04/17 04:32:08;;;;;;;24.25;15.68;;;;;;;7.11;100.00;102711.75;6103526;23;20018;-79
2023/04/17 04:34:40;;;;;;;25.88;16.15;;;;;;;7.13;100.00;102714.03;6103177;23;20022;-79
2023/04/17 04:37:07;;;;;;;29.40;17.45;;;;;;;7.14;100.00;102707.63;6129571;23;20018;-79
2023/04/17 04:39:42;;;;;;;24.92;16.30;;;;;;;7.15;100.00;102709.91;6081001;23;20045;-79
2023/04/17 04:42:20;;;;;;;22.98;15.63;;;;;;;7.14;100.00;102712.91;6103333;23;20058;-79
2023/04/17 04:45:08;;;;;;;27.52;16.23;;;;;;;7.11;100.00;102717.06;6103141;23;20030;-79
2023/04/17 04:47:35;;;;;;;25.27;15.85;;;;;;;7.11;100.00;102713.63;6102841;23;20074;-79
2023/04/17 04:50:02;;;;;;;28.40;16.85;;;;;;;7.11;100.00;102724.22;6103441;23;20018;-79
2023/04/17 04:52:29;;;;;;;27.63;17.42;;;;;;;7.10;100.00;102718.19;6103426;23;20022;-79
2023/04/17 04:55:00;;;;;;;28.73;16.83;;;;;;;7.13;100.00;102719.34;6080039;23;20022;-79
2023/04/17 04:57:28;;;;;;;26.90;17.02;;;;;;;7.15;100.00;102725.03;6080312;23;20022;-79
2023/04/17 04:59:58;;;;;;;26.45;16.80;;;;;;;7.14;100.00;102723.50;6079704;23;20098;-79
2023/04/17 05:02:33;;;;;;;26.98;16.08;;;;;;;7.13;100.00;102721.97;6105433;23;20022;-78
2023/04/17 05:05:01;;;;;;;23.25;15.93;;;;;;;7.11;100.00;102726.88;6102249;23;20026;-79
2023/04/17 05:07:30;;;;;;;27.92;16.25;;;;;;;7.12;100.00;102736.34;6102723;23;20365;-80
2023/04/17 05:09:57;;;;;;;24.88;16.58;;;;;;;7.10;100.00;102728.78;6102640;23;20022;-81
2023/04/17 05:12:25;;;;;;;25.38;15.90;;;;;;;7.11;100.00;102735.59;6103106;23;20025;-77
2023/04/17 05:14:52;;;;;;;28.77;17.42;;;;;;;7.12;100.00;102739.00;6103926;23;20034;-79
2023/04/17 05:17:19;;;;;;;32.00;17.85;;;;;;;7.12;100.00;102744.28;6103364;23;20022;-80
2023/04/17 05:19:46;;;;;;;29.23;17.92;;;;;;;7.12;100.00;102741.66;6079952;23;20027;-80
2023/04/17 05:22:13;;;;;;;32.63;17.08;;;;;;;7.12;100.00;102742.41;6103506;23;20024;-79
2023/04/17 05:24:55;;;;;;;33.13;17.63;;;;;;;7.13;100.00;102743.16;6104263;23;20023;-80
2023/04/17 05:27:21;;;;;;;29.98;18.52;;;;;;;7.13;100.00;102748.47;6129760;23;20014;-83
2023/04/17 05:29:48;;;;;;;28.08;18.48;;;;;;;7.11;100.00;102756.03;6104188;23;20022;-81
2023/04/17 05:32:15;;;;;;;29.13;17.52;;;;;;;7.10;100.00;102744.66;6103417;23;20027;-80
2023/04/17 05:34:57;;;;;;;28.40;16.08;;;;;;;7.11;100.00;102748.06;6103857;23;20449;-80
2023/04/17 05:37:26;;;;;;;24.83;16.13;;;;;;;7.12;100.00;102749.59;6103950;23;20018;-80
2023/04/17 05:39:54;;;;;;;26.65;16.48;;;;;;;7.12;100.00;102747.72;6104069;23;20558;-80
2023/04/17 05:42:21;;;;;;;29.98;16.77;;;;;;;7.12;100.00;102752.25;6079237;23;20028;-83
2023/04/17 05:44:48;;;;;;;25.60;15.98;;;;;;;7.13;100.00;102751.13;6129817;23;20033;-82
2023/04/17 05:47:14;;;;;;;27.00;17.58;;;;;;;7.12;100.00;102753.00;6104131;23;20014;-78
2023/04/17 05:49:42;;;;;;;32.28;18.20;;;;;;;7.16;100.00;102743.19;6130306;23;20085;-79
2023/04/17 05:52:09;;;;;;;28.33;17.02;;;;;;;7.19;100.00;102752.31;6103647;23;20019;-80
2023/04/17 05:54:40;;;;;;;25.98;16.73;;;;;;;7.18;100.00;102751.53;6103888;23;20026;-78
2023/04/17 05:57:07;;;;;;;30.15;17.33;;;;;;;7.18;100.00;102756.09;6128754;23;20038;-79
2023/04/17 05:59:35;;;;;;;26.27;17.25;;;;;;;7.19;100.00;102750.41;6103882;23;20057;-79
2023/04/17 06:02:01;;;;;;;30.33;18.10;;;;;;;7.22;100.00;102749.66;6104823;23;20041;-79
2023/04/17 06:04:28;;;;;;;24.25;16.60;;;;;;;7.24;100.00;102754.59;6105109;23;20022;-79
2023/04/17 06:06:56;;;;;;;27.75;17.58;;;;;;;7.25;100.00;102758.75;6104660;23;20385;-79
2023/04/17 06:09:23;;;;;;;30.35;17.98;;;;;;;7.25;100.00;102761.41;6105205;23;20102;-79
2023/04/17 06:11:51;;;;;;;30.30;18.02;;;;;;;7.22;100.00;102762.91;6104068;23;20030;-80
2023/04/17 06:14:17;;;;;;;30.00;18.40;;;;;;;7.20;100.00;102765.16;6104647;23;20051;-78
2023/04/17 06:16:45;;;;;;;30.73;17.92;;;;;;;7.21;100.00;102766.69;6081189;23;20417;-78
2023/04/17 06:19:15;;;;;;;32.25;16.88;;;;;;;7.21;100.00;102773.88;6104146;23;20026;-79
2023/04/17 06:21:43;;;;;;;32.97;18.92;;;;;;;7.21;100.00;102779.16;6081448;23;20022;-79
2023/04/17 06:24:10;;;;;;;31.95;18.92;;;;;;;7.18;100.00;102782.56;6104674;23;20023;-78
2023/04/17 06:26:41;;;;;;;31.73;18.83;;;;;;;7.21;100.00;102785.22;6104451;23;20539;-78
2023/04/17 06:29:07;;;;;;;34.53;18.95;;;;;;;7.23;100.00;102782.97;6080973;23;20677;-79
2023/04/17 06:31:35;;;;;;;31.95;18.45;;;;;;;7.25;100.00;102780.72;6104964;23;20148;-80
2023/04/17 06:34:02;;;;;;;28.15;18.13;;;;;;;7.26;100.00;102792.06;6104565;23;20480;-79
2023/04/17 06:36:34;;;;;;;33.17;18.38;;;;;;;7.27;100.00;102780.34;6105010;23;20576;-79
2023/04/17 06:39:02;;;;;;;38.53;19.27;;;;;;;7.26;100.00;102797.38;6130786;23;20027;-77
2023/04/17 06:41:29;;;;;;;32.33;19.42;;;;;;;7.27;100.00;102791.72;6080395;23;20072;-79
2023/04/17 06:43:55;;;;;;;32.25;18.88;;;;;;;7.29;100.00;102801.94;6104819;23;20082;-80
2023/04/17 06:46:22;;;;;;;34.55;19.50;;;;;;;7.27;100.00;102801.53;6081054;23;20098;-79
2023/04/17 06:48:51;;;;;;;31.35;18.52;;;;;;;7.22;100.00;102805.28;6104658;23;20418;-79
2023/04/17 06:51:19;;;;;;;31.33;18.80;;;;;;;7.18;100.00;102809.81;6105000;23;20108;-79
2023/04/17 06:53:47;;;;;;;33.20;19.50;;;;;;;7.16;100.00;102817.38;6104803;23;20022;-80
2023/04/17 06:56:13;;;;;;;33.38;19.10;;;;;;;7.12;100.00;102821.09;6130140;23;20019;-80
2023/04/17 06:58:42;;;;;;;34.40;20.02;;;;;;;7.10;100.00;102810.13;6099892;23;20030;-80
2023/04/17 07:01:10;;;;;;;36.60;20.15;;;;;;;7.08;100.00;102815.78;6101326;23;20019;-79
2023/04/17 07:03:40;;;;;;;41.47;20.55;;;;;;;7.15;100.00;102817.72;6101556;23;20030;-79
2023/04/17 07:06:08;;;;;;;31.45;19.75;;;;;;;7.21;100.00;102817.00;6101333;23;20054;-80
2023/04/17 07:08:34;;;;;;;36.10;20.05;;;;;;;7.29;100.00;102820.47;6101437;23;20029;-79
2023/04/17 07:11:01;;;;;;;37.90;19.48;;;;;;;7.41;100.00;102827.41;6101069;23;20070;-80
2023/04/17 07:13:30;;;;;;;27.73;17.80;;;;;;;7.49;100.00;102823.69;6101748;23;20508;-80
2023/04/17 07:15:57;;;;;;;31.15;18.15;;;;;;;7.56;100.00;102829.03;6101455;23;20090;-80
2023/04/17 07:18:25;;;;;;;32.83;17.60;;;;;;;7.61;100.00;102832.09;6101822;23;20034;-80
2023/04/17 07:20:52;;;;;;;32.35;19.10;;;;;;;7.64;100.00;102827.94;6101582;23;20026;-79
2023/04/17 07:23:18;;;;;;;32.63;19.17;;;;;;;7.68;100.00;102834.78;6100809;23;20026;-79
2023/04/17 07:25:45;;;;;;;32.67;17.95;;;;;;;7.70;100.00;102839.72;6101831;23;20445;-80
2023/04/17 07:28:11;;;;;;;27.67;17.75;;;;;;;7.75;100.00;102835.97;6099628;23;20015;-80
2023/04/17 07:30:38;;;;;;;30.65;17.98;;;;;;;7.81;100.00;102834.50;6101691;23;20022;-80
2023/04/17 07:33:04;;;;;;;29.20;18.48;;;;;;;7.89;100.00;102836.06;6099728;23;20480;-82
2023/04/17 07:35:31;;;;;;;30.17;18.08;;;;;;;7.95;100.00;102842.56;6101611;23;20022;-80
2023/04/17 07:38:00;;;;;;;30.08;18.45;;;;;;;7.93;100.00;102840.28;6100732;23;20015;-80
2023/04/17 07:40:27;;;;;;;30.27;17.67;;;;;;;7.95;100.00;102847.88;6101521;23;20555;-81
2023/04/17 07:42:55;;;;;;;32.55;18.75;;;;;;;7.97;100.00;102835.75;6101663;23;20023;-82
2023/04/17 07:45:22;;;;;;;27.90;17.45;;;;;;;8.00;100.00;102839.53;6101594;23;20022;-81
2023/04/17 07:47:52;;;;;;;30.27;17.58;;;;;;;7.98;100.00;102839.16;6101513;23;20437;-80
2023/04/17 07:50:19;;;;;;;31.92;17.33;;;;;;;7.94;100.00;102841.03;6101033;23;20015;-81
2023/04/17 07:52:45;;;;;;;30.75;17.23;;;;;;;7.87;100.00;102839.09;6100865;23;20105;-80
2023/04/17 07:55:12;;;;;;;30.55;17.45;;;;;;;7.90;100.00;102840.25;6101198;23;20022;-82
2023/04/17 07:57:42;;;;;;;31.63;18.63;;;;;;;7.93;99.93;102842.16;6112926;23;20526;-82
2023/04/17 08:00:10;;;;;;;29.52;18.77;;;;;;;7.97;100.00;102845.59;6129979;23;20022;-82
2023/04/17 08:02:41;;;;;;;35.83;18.63;;;;;;;8.02;99.65;102845.22;6105688;23;20018;-81
2023/04/17 08:05:08;;;;;;;32.30;18.65;;;;;;;8.04;99.46;102848.28;6130234;23;20018;-80
2023/04/17 08:07:35;;;;;;;31.35;18.20;;;;;;;8.09;99.63;102844.50;6130151;23;20069;-81
2023/04/17 08:10:03;;;;;;;29.42;18.55;;;;;;;8.22;99.39;102848.38;6130236;23;20019;-82
2023/04/17 08:12:30;;;;;;;31.27;18.15;;;;;;;8.40;98.58;102853.81;6130474;23;20022;-82
2023/04/17 08:14:56;;;;;;;35.15;19.75;;;;;;;8.45;98.02;102842.81;6103863;23;20037;-82
2023/04/17 08:17:24;;;;;;;28.30;18.40;;;;;;;8.47;96.80;102849.28;6130679;23;20014;-82
2023/04/17 08:19:52;;;;;;;29.60;18.70;;;;;;;8.46;97.24;102849.63;6130300;23;20033;-81
2023/04/17 08:22:23;;;;;;;32.15;18.95;;;;;;;8.47;96.50;102848.50;6102848;23;20029;-83
2023/04/17 08:24:56;;;;;;;27.30;18.67;;;;;;;8.48;96.25;102847.38;6130817;23;20494;-82
2023/04/17 08:27:24;;;;;;;26.42;18.58;;;;;;;8.53;95.34;102852.31;6104856;23;20015;-82
2023/04/17 08:29:54;;;;;;;28.70;19.52;;;;;;;8.53;94.77;102853.09;6104618;23;20471;-82
2023/04/17 08:32:20;;;;;;;35.45;18.92;;;;;;;8.58;94.91;102844.00;6130460;23;20417;-81
2023/04/17 08:34:47;;;;;;;33.20;18.98;;;;;;;8.63;94.32;102856.91;6130580;23;20014;-80
2023/04/17 08:37:14;;;;;;;31.75;19.98;;;;;;;8.68;93.63;102856.56;6129594;23;20073;-80
2023/04/17 08:39:41;;;;;;;26.33;18.40;;;;;;;8.68;93.11;102851.25;6130725;23;20089;-81
2023/04/17 08:42:09;;;;;;;28.55;19.00;;;;;;;8.74;92.72;102851.66;6130363;23;20400;-79
2023/04/17 08:44:43;;;;;;;29.83;18.88;;;;;;;8.82;92.92;102845.19;6104707;23;20026;-81
2023/04/17 08:47:11;;;;;;;26.15;18.48;;;;;;;8.86;91.98;102851.28;6130545;23;20018;-81
2023/04/17 08:49:42;;;;;;;29.10;19.30;;;;;;;8.93;91.95;102854.72;6130594;23;20014;-82
2023/04/17 08:52:09;;;;;;;27.77;18.67;;;;;;;8.97;91.80;102860.03;6129730;23;20024;-81
2023/04/17 08:54:37;;;;;;;27.75;19.08;;;;;;;9.07;91.52;102864.63;6130669;23;20018;-81
2023/04/17 08:57:04;;;;;;;28.63;19.05;;;;;;;9.16;90.84;102865.03;6129903;23;20093;-81
2023/04/17 08:59:31;;;;;;;25.77;19.15;;;;;;;9.34;90.55;102862.38;6104578;23;20034;-83
2023/04/17 09:02:05;;;;;;;31.48;19.10;;;;;;;9.62;89.21;102862.34;6104180;23;20022;-79
2023/04/17 09:04:41;;;;;;;26.17;18.52;;;;;;;9.82;87.97;102851.31;6079852;23;20200;-78
2023/04/17 09:07:10;;;;;;;30.02;18.67;;;;;;;9.93;86.82;102862.72;6104563;23;20014;-79
2023/04/17 09:09:46;;;;;;;30.00;19.17;;;;;;;10.10;86.46;102855.81;6130570;23;20042;-80
2023/04/17 09:12:13;;;;;;;23.80;19.08;;;;;;;10.28;84.58;102870.63;6130114;23;20054;-80
2023/04/17 09:14:40;;;;;;;24.80;17.92;;;;;;;10.54;83.90;102860.63;6130501;23;20015;-79
2023/04/17 09:17:06;;;;;;;26.92;17.38;;;;;;;10.88;82.36;102863.50;6103817;23;20022;-79
2023/04/17 09:19:33;;;;;;;26.90;19.45;;;;;;;11.30;80.60;102862.44;6129488;23;20368;-78
2023/04/17 09:22:18;;;;;;;24.70;18.50;;;;;;;11.67;80.06;102867.84;6130124;23;20475;-78
2023/04/17 09:24:45;;;;;;;27.13;19.05;;;;;;;11.61;78.19;102861.41;6130309;23;20022;-78
2023/04/17 09:27:25;;;;;;;26.23;18.88;;;;;;;11.52;78.84;102866.47;6103950;23;20513;-82
2023/04/17 09:29:59;;;;;;;25.05;19.08;;;;;;;11.41;79.63;102860.47;6130415;23;20440;-87
2023/04/17 09:32:27;;;;;;;25.77;18.55;;;;;;;11.30;79.56;102867.78;6130355;23;20023;-81
2023/04/17 09:34:55;;;;;;;68.68;43.30;;;;;;;11.22;79.54;102871.66;6127642;23;20049;-81
2023/04/17 09:37:23;;;;;;;24.48;19.52;;;;;;;11.20;79.80;102869.38;6129599;23;20019;-81
2023/04/17 09:39:56;;;;;;;28.05;19.80;;;;;;;11.29;79.51;102874.25;6128899;23;20037;-81
2023/04/17 09:42:23;;;;;;;26.35;20.00;;;;;;;11.31;79.28;102877.28;6130127;23;20397;-81
2023/04/17 09:44:49;;;;;;;26.80;18.60;;;;;;;11.36;78.88;102872.31;6104359;23;20018;-81
2023/04/17 09:47:17;;;;;;;29.13;19.52;;;;;;;11.45;78.22;102871.88;6130047;23;20023;-81
2023/04/17 09:49:49;;;;;;;26.92;19.42;;;;;;;11.54;77.67;102874.84;6129647;23;20042;-81
2023/04/17 09:52:15;;;;;;;23.92;19.67;;;;;;;11.66;77.53;102874.34;6129849;23;20050;-81
2023/04/17 09:54:45;;;;;;;29.42;19.58;;;;;;;11.77;76.85;102868.94;6130125;23;20021;-87
2023/04/17 09:57:12;;;;;;;26.63;19.55;;;;;;;11.97;77.05;102875.22;6129988;23;20516;-82
2023/04/17 09:59:48;;;;;;;25.00;18.27;;;;;;;12.03;76.11;102878.97;6130007;23;20097;-83
2023/04/17 10:02:17;;;;;;;25.10;19.00;;;;;;;11.97;76.38;102880.56;6104012;23;20023;-85
2023/04/17 10:04:45;;;;;;;26.83;19.63;;;;;;;11.97;76.31;102880.56;6129596;23;20097;-81
2023/04/17 10:07:12;;;;;;;25.65;19.67;;;;;;;12.03;76.58;102886.22;6129718;23;20018;-81
2023/04/17 10:09:40;;;;;;;28.88;19.20;;;;;;;12.04;75.52;102882.38;6129932;23;20374;-81
2023/04/17 10:12:18;;;;;;;28.52;20.25;;;;;;;12.01;75.37;102880.50;6103437;23;20054;-81
2023/04/17 10:14:48;;;;;;;27.15;19.35;;;;;;;11.93;76.18;102887.84;6130163;23;20026;-80
2023/04/17 10:17:25;;;;;;;26.10;19.23;;;;;;;12.04;75.76;102882.38;6129116;23;20054;-83
2023/04/17 10:19:52;;;;;;;25.27;19.88;;;;;;;12.11;75.14;102882.31;6103698;23;20503;-81
2023/04/17 10:22:18;;;;;;;32.08;19.65;;;;;;;12.25;74.77;102876.81;6129654;23;20023;-79
2023/04/17 10:24:47;;;;;;;27.15;19.58;;;;;;;12.29;74.55;102877.53;6129780;23;20018;-85
2023/04/17 10:27:25;;;;;;;25.40;20.30;;;;;;;12.47;74.62;102880.00;6129653;23;20019;-82
2023/04/17 10:30:03;;;;;;;27.25;19.27;;;;;;;12.75;74.91;102873.53;6129962;23;20015;-82
2023/04/17 10:32:30;;;;;;;22.67;18.92;;;;;;;12.90;73.82;102874.84;6103174;23;20476;-83
2023/04/17 10:34:59;;;;;;;32.70;20.48;;;;;;;13.14;72.78;102869.53;6129474;23;20014;-84
2023/04/17 10:37:51;;;;;;;27.75;20.10;;;;;;;13.33;72.90;102877.66;6129780;23;20094;-82
2023/04/17 10:40:21;;;;;;;28.77;19.38;;;;;;;13.47;71.27;102868.66;6103334;23;20023;-82
2023/04/17 10:43:18;;;;;;;27.85;19.00;;;;;;;13.60;71.38;102871.47;6129773;23;20037;-84
2023/04/17 10:45:58;;;;;;;27.40;20.08;;;;;;;13.74;70.62;102863.19;6104060;23;20018;-79
2023/04/17 10:48:33;;;;;;;29.15;20.25;;;;;;;14.07;69.74;102858.00;6105687;23;20066;-84
2023/04/17 10:51:20;;;;;;;25.13;19.98;;;;;;;14.03;69.66;102860.75;6130868;23;20019;-84
2023/04/17 10:53:48;;;;;;;28.60;20.60;;;;;;;14.09;68.66;102861.03;6106399;23;20030;-80
2023/04/17 10:56:23;;;;;;;28.73;19.67;;;;;;;14.25;69.04;102856.50;6130883;23;20025;-81
2023/04/17 10:58:56;;;;;;;28.17;19.63;;;;;;;14.45;67.17;102850.38;6099990;23;20026;-82
2023/04/17 11:01:35;;;;;;;26.17;20.42;;;;;;;14.48;66.43;102849.53;6101173;23;20452;-83
2023/04/17 11:04:03;;;;;;;30.20;20.52;;;;;;;14.74;66.55;102839.81;6101513;23;20023;-84
2023/04/17 11:06:31;;;;;;;27.80;20.50;;;;;;;14.86;66.20;102849.84;6101430;23;20022;-84
2023/04/17 11:08:59;;;;;;;28.98;19.67;;;;;;;14.96;65.18;102844.25;6099688;23;20046;-84
2023/04/17 11:11:26;;;;;;;22.85;19.13;;;;;;;15.00;64.11;102836.88;6101643;23;20027;-84
2023/04/17 11:14:12;;;;;;;26.13;19.95;;;;;;;15.09;65.18;102841.66;6100014;23;20086;-84
2023/04/17 11:16:42;;;;;;;26.98;20.13;;;;;;;15.09;65.28;102833.59;6101124;23;20019;-85